sensor_id;sensor_type;location;lat;lon;timestamp;P1;durP1;ratioP1;P2;durP2;ratioP2
23702;SDS011;12030;50.376;8.762;2022-12-05T00:01:21;22.13;;;15.37;;
23702;SDS011;12030;50.376;8.762;2022-12-05T00:03:50;19.90;;;14.80;;
23702;SDS011;12030;50.376;8.762;2022-12-05T00:06:17;20.37;;;14.20;;
23702;SDS011;12030;50.376;8.762;2022-12-05T00:08:44;22.00;;;15.07;;
23702;SDS011;12030;50.376;8.762;2022-12-05T00:11:14;21.17;;;15.17;;
23702;SDS011;12030;50.376;8.762;2022-12-05T00:13:42;21.93;;;15.57;;
23702;SDS011;12030;50.376;8.762;2022-12-05T00:16:09;20.77;;;15.03;;
23702;SDS011;12030;50.376;8.762;2022-12-05T00:18:36;21.90;;;14.13;;
23702;SDS011;12030;50.376;8.762;2022-12-05T00:21:02;23.37;;;16.27;;
23702;SDS011;12030;50.376;8.762;2022-12-05T00:23:28;21.47;;;15.43;;
23702;SDS011;12030;50.376;8.762;2022-12-05T00:25:54;21.30;;;15.37;;
23702;SDS011;12030;50.376;8.762;2022-12-05T00:28:20;19.67;;;15.10;;
23702;SDS011;12030;50.376;8.762;2022-12-05T00:30:45;23.53;;;15.67;;
23702;SDS011;12030;50.376;8.762;2022-12-05T00:33:11;21.13;;;14.83;;
23702;SDS011;12030;50.376;8.762;2022-12-05T00:35:36;22.27;;;14.97;;
23702;SDS011;12030;50.376;8.762;2022-12-05T00:38:02;21.23;;;14.87;;
23702;SDS011;12030;50.376;8.762;2022-12-05T00:40:28;22.87;;;14.73;;
23702;SDS011;12030;50.376;8.762;2022-12-05T00:42:53;23.33;;;15.70;;
23702;SDS011;12030;50.376;8.762;2022-12-05T00:45:19;23.10;;;15.17;;
23702;SDS011;12030;50.376;8.762;2022-12-05T00:47:44;21.50;;;14.80;;
23702;SDS011;12030;50.376;8.762;2022-12-05T00:50:10;23.83;;;15.73;;
23702;SDS011;12030;50.376;8.762;2022-12-05T00:52:35;25.03;;;15.63;;
23702;SDS011;12030;50.376;8.762;2022-12-05T00:55:01;21.60;;;13.73;;
23702;SDS011;12030;50.376;8.762;2022-12-05T00:57:26;19.67;;;14.83;;
23702;SDS011;12030;50.376;8.762;2022-12-05T00:59:52;20.40;;;14.73;;
23702;SDS011;12030;50.376;8.762;2022-12-05T01:02:18;21.80;;;14.83;;
23702;SDS011;12030;50.376;8.762;2022-12-05T01:04:43;19.40;;;14.17;;
23702;SDS011;12030;50.376;8.762;2022-12-05T01:07:09;23.23;;;14.50;;
23702;SDS011;12030;50.376;8.762;2022-12-05T01:09:34;25.13;;;15.07;;
23702;SDS011;12030;50.376;8.762;2022-12-05T01:12:00;20.80;;;14.30;;
23702;SDS011;12030;50.376;8.762;2022-12-05T01:14:26;20.73;;;14.10;;
23702;SDS011;12030;50.376;8.762;2022-12-05T01:16:52;20.30;;;14.40;;
23702;SDS011;12030;50.376;8.762;2022-12-05T01:19:23;18.27;;;13.60;;
23702;SDS011;12030;50.376;8.762;2022-12-05T01:21:54;21.20;;;14.30;;
23702;SDS011;12030;50.376;8.762;2022-12-05T01:24:21;21.40;;;14.20;;
23702;SDS011;12030;50.376;8.762;2022-12-05T01:26:48;20.33;;;14.20;;
23702;SDS011;12030;50.376;8.762;2022-12-05T01:29:15;21.40;;;14.20;;
23702;SDS011;12030;50.376;8.762;2022-12-05T01:31:42;19.30;;;13.43;;
23702;SDS011;12030;50.376;8.762;2022-12-05T01:34:10;20.57;;;14.27;;
23702;SDS011;12030;50.376;8.762;2022-12-05T01:36:37;19.27;;;13.53;;
23702;SDS011;12030;50.376;8.762;2022-12-05T01:39:04;21.00;;;13.80;;
23702;SDS011;12030;50.376;8.762;2022-12-05T01:41:32;21.97;;;14.80;;
23702;SDS011;12030;50.376;8.762;2022-12-05T01:46:39;20.87;;;13.87;;
23702;SDS011;12030;50.376;8.762;2022-12-05T01:51:40;21.17;;;13.90;;
23702;SDS011;12030;50.376;8.762;2022-12-05T01:54:10;22.27;;;13.93;;
23702;SDS011;12030;50.376;8.762;2022-12-05T01:56:36;19.90;;;13.60;;
23702;SDS011;12030;50.376;8.762;2022-12-05T01:59:04;18.63;;;13.37;;
23702;SDS011;12030;50.376;8.762;2022-12-05T02:01:32;22.43;;;14.23;;
23702;SDS011;12030;50.376;8.762;2022-12-05T02:03:59;21.27;;;15.03;;
23702;SDS011;12030;50.376;8.762;2022-12-05T02:06:25;20.03;;;13.47;;
23702;SDS011;12030;50.376;8.762;2022-12-05T02:08:52;24.83;;;14.07;;
23702;SDS011;12030;50.376;8.762;2022-12-05T02:11:18;21.43;;;14.60;;
23702;SDS011;12030;50.376;8.762;2022-12-05T02:13:49;21.90;;;14.13;;
23702;SDS011;12030;50.376;8.762;2022-12-05T02:19:30;19.43;;;13.37;;
23702;SDS011;12030;50.376;8.762;2022-12-05T02:32:51;20.83;;;13.67;;
23702;SDS011;12030;50.376;8.762;2022-12-05T02:43:18;21.17;;;14.57;;
23702;SDS011;12030;50.376;8.762;2022-12-05T02:45:48;20.10;;;13.50;;
23702;SDS011;12030;50.376;8.762;2022-12-05T02:48:18;24.97;;;14.50;;
23702;SDS011;12030;50.376;8.762;2022-12-05T02:50:45;21.40;;;13.53;;
23702;SDS011;12030;50.376;8.762;2022-12-05T02:53:13;22.57;;;13.30;;
23702;SDS011;12030;50.376;8.762;2022-12-05T02:55:41;24.73;;;14.87;;
23702;SDS011;12030;50.376;8.762;2022-12-05T02:58:15;20.77;;;13.47;;
23702;SDS011;12030;50.376;8.762;2022-12-05T03:00:46;22.30;;;13.57;;
23702;SDS011;12030;50.376;8.762;2022-12-05T03:03:17;21.57;;;13.83;;
23702;SDS011;12030;50.376;8.762;2022-12-05T03:08:24;19.30;;;12.70;;
23702;SDS011;12030;50.376;8.762;2022-12-05T03:11:04;19.67;;;13.47;;
23702;SDS011;12030;50.376;8.762;2022-12-05T03:13:32;21.57;;;14.00;;
23702;SDS011;12030;50.376;8.762;2022-12-05T03:16:10;19.27;;;13.00;;
23702;SDS011;12030;50.376;8.762;2022-12-05T03:18:46;21.47;;;14.37;;
23702;SDS011;12030;50.376;8.762;2022-12-05T03:21:19;22.77;;;14.37;;
23702;SDS011;12030;50.376;8.762;2022-12-05T03:23:57;19.53;;;13.03;;
23702;SDS011;12030;50.376;8.762;2022-12-05T03:31:53;20.23;;;13.37;;
23702;SDS011;12030;50.376;8.762;2022-12-05T03:34:41;21.13;;;13.27;;
23702;SDS011;12030;50.376;8.762;2022-12-05T03:37:16;17.80;;;12.43;;
23702;SDS011;12030;50.376;8.762;2022-12-05T03:39:49;18.93;;;13.17;;
23702;SDS011;12030;50.376;8.762;2022-12-05T03:42:28;18.93;;;13.33;;
23702;SDS011;12030;50.376;8.762;2022-12-05T03:45:02;20.10;;;13.90;;
23702;SDS011;12030;50.376;8.762;2022-12-05T03:47:40;18.53;;;12.73;;
23702;SDS011;12030;50.376;8.762;2022-12-05T03:50:15;17.70;;;12.73;;
23702;SDS011;12030;50.376;8.762;2022-12-05T03:52:47;18.00;;;13.17;;
23702;SDS011;12030;50.376;8.762;2022-12-05T03:55:18;20.60;;;12.80;;
23702;SDS011;12030;50.376;8.762;2022-12-05T03:57:53;18.73;;;13.30;;
23702;SDS011;12030;50.376;8.762;2022-12-05T04:00:24;17.87;;;12.40;;
23702;SDS011;12030;50.376;8.762;2022-12-05T04:05:26;18.20;;;12.43;;
23702;SDS011;12030;50.376;8.762;2022-12-05T04:08:13;19.00;;;13.13;;
23702;SDS011;12030;50.376;8.762;2022-12-05T04:10:43;18.30;;;13.07;;
23702;SDS011;12030;50.376;8.762;2022-12-05T04:13:24;17.63;;;12.13;;
23702;SDS011;12030;50.376;8.762;2022-12-05T04:15:59;19.67;;;12.17;;
23702;SDS011;12030;50.376;8.762;2022-12-05T04:19:11;20.83;;;13.80;;
23702;SDS011;12030;50.376;8.762;2022-12-05T04:21:40;20.03;;;13.47;;
23702;SDS011;12030;50.376;8.762;2022-12-05T04:24:12;18.00;;;12.70;;
23702;SDS011;12030;50.376;8.762;2022-12-05T04:27:05;18.77;;;12.80;;
23702;SDS011;12030;50.376;8.762;2022-12-05T04:29:50;19.50;;;12.77;;
23702;SDS011;12030;50.376;8.762;2022-12-05T04:32:27;18.43;;;12.90;;
23702;SDS011;12030;50.376;8.762;2022-12-05T04:35:03;19.47;;;12.93;;
23702;SDS011;12030;50.376;8.762;2022-12-05T04:37:33;18.97;;;12.80;;
23702;SDS011;12030;50.376;8.762;2022-12-05T04:40:15;21.40;;;13.00;;
23702;SDS011;12030;50.376;8.762;2022-12-05T04:42:45;18.27;;;12.83;;
23702;SDS011;12030;50.376;8.762;2022-12-05T04:45:14;17.70;;;12.40;;
23702;SDS011;12030;50.376;8.762;2022-12-05T04:47:43;18.03;;;12.80;;
23702;SDS011;12030;50.376;8.762;2022-12-05T04:50:13;17.77;;;12.63;;
23702;SDS011;12030;50.376;8.762;2022-12-05T04:52:40;17.23;;;12.53;;
23702;SDS011;12030;50.376;8.762;2022-12-05T04:55:11;16.47;;;12.23;;
23702;SDS011;12030;50.376;8.762;2022-12-05T04:57:41;16.33;;;12.43;;
23702;SDS011;12030;50.376;8.762;2022-12-05T05:00:12;18.83;;;12.23;;
23702;SDS011;12030;50.376;8.762;2022-12-05T05:02:49;18.37;;;12.60;;
23702;SDS011;12030;50.376;8.762;2022-12-05T05:05:22;19.27;;;12.53;;
23702;SDS011;12030;50.376;8.762;2022-12-05T05:07:49;15.80;;;12.03;;
23702;SDS011;12030;50.376;8.762;2022-12-05T05:10:18;17.57;;;12.87;;
23702;SDS011;12030;50.376;8.762;2022-12-05T05:13:03;16.83;;;11.83;;
23702;SDS011;12030;50.376;8.762;2022-12-05T05:15:28;18.33;;;12.40;;
23702;SDS011;12030;50.376;8.762;2022-12-05T05:17:54;17.03;;;12.57;;
23702;SDS011;12030;50.376;8.762;2022-12-05T05:20:20;18.03;;;13.00;;
23702;SDS011;12030;50.376;8.762;2022-12-05T05:22:51;17.57;;;13.30;;
23702;SDS011;12030;50.376;8.762;2022-12-05T05:25:22;18.53;;;12.97;;
23702;SDS011;12030;50.376;8.762;2022-12-05T05:27:49;19.93;;;13.07;;
23702;SDS011;12030;50.376;8.762;2022-12-05T05:30:16;16.83;;;12.77;;
23702;SDS011;12030;50.376;8.762;2022-12-05T05:32:43;21.60;;;14.03;;
23702;SDS011;12030;50.376;8.762;2022-12-05T05:35:09;19.30;;;13.20;;
23702;SDS011;12030;50.376;8.762;2022-12-05T05:37:35;22.13;;;13.53;;
23702;SDS011;12030;50.376;8.762;2022-12-05T05:40:01;22.57;;;14.17;;
23702;SDS011;12030;50.376;8.762;2022-12-05T05:42:28;22.27;;;15.03;;
23702;SDS011;12030;50.376;8.762;2022-12-05T05:44:53;21.27;;;13.90;;
23702;SDS011;12030;50.376;8.762;2022-12-05T05:47:19;22.10;;;13.90;;
23702;SDS011;12030;50.376;8.762;2022-12-05T05:49:44;23.27;;;14.53;;
23702;SDS011;12030;50.376;8.762;2022-12-05T05:52:10;24.33;;;14.50;;
23702;SDS011;12030;50.376;8.762;2022-12-05T05:54:36;22.13;;;14.43;;
23702;SDS011;12030;50.376;8.762;2022-12-05T05:57:01;18.20;;;13.20;;
23702;SDS011;12030;50.376;8.762;2022-12-05T05:59:27;22.03;;;13.60;;
23702;SDS011;12030;50.376;8.762;2022-12-05T06:01:52;20.93;;;14.47;;
23702;SDS011;12030;50.376;8.762;2022-12-05T06:04:18;21.57;;;13.77;;
23702;SDS011;12030;50.376;8.762;2022-12-05T06:06:43;26.63;;;15.67;;
23702;SDS011;12030;50.376;8.762;2022-12-05T06:09:09;19.80;;;14.57;;
23702;SDS011;12030;50.376;8.762;2022-12-05T06:11:34;20.53;;;15.07;;
23702;SDS011;12030;50.376;8.762;2022-12-05T06:14:00;21.50;;;14.27;;
23702;SDS011;12030;50.376;8.762;2022-12-05T06:16:26;24.13;;;14.70;;
23702;SDS011;12030;50.376;8.762;2022-12-05T06:18:52;18.97;;;13.93;;
23702;SDS011;12030;50.376;8.762;2022-12-05T06:21:18;20.23;;;14.33;;
23702;SDS011;12030;50.376;8.762;2022-12-05T06:23:45;23.67;;;14.40;;
23702;SDS011;12030;50.376;8.762;2022-12-05T06:26:11;27.03;;;16.03;;
23702;SDS011;12030;50.376;8.762;2022-12-05T06:28:39;22.83;;;14.67;;
23702;SDS011;12030;50.376;8.762;2022-12-05T06:31:15;26.67;;;15.90;;
23702;SDS011;12030;50.376;8.762;2022-12-05T06:33:42;25.27;;;15.27;;
23702;SDS011;12030;50.376;8.762;2022-12-05T06:36:12;26.50;;;16.23;;
23702;SDS011;12030;50.376;8.762;2022-12-05T06:38:39;23.83;;;15.53;;
23702;SDS011;12030;50.376;8.762;2022-12-05T06:41:06;27.10;;;16.57;;
23702;SDS011;12030;50.376;8.762;2022-12-05T06:43:33;25.67;;;17.03;;
23702;SDS011;12030;50.376;8.762;2022-12-05T06:45:59;24.60;;;17.20;;
23702;SDS011;12030;50.376;8.762;2022-12-05T06:48:28;29.87;;;16.83;;
23702;SDS011;12030;50.376;8.762;2022-12-05T06:50:54;26.30;;;16.83;;
23702;SDS011;12030;50.376;8.762;2022-12-05T06:53:19;24.27;;;16.30;;
23702;SDS011;12030;50.376;8.762;2022-12-05T06:55:58;25.13;;;16.50;;
23702;SDS011;12030;50.376;8.762;2022-12-05T06:58:29;27.93;;;16.83;;
23702;SDS011;12030;50.376;8.762;2022-12-05T07:00:55;30.73;;;16.87;;
23702;SDS011;12030;50.376;8.762;2022-12-05T07:03:39;29.07;;;17.70;;
23702;SDS011;12030;50.376;8.762;2022-12-05T07:06:05;29.93;;;17.53;;
23702;SDS011;12030;50.376;8.762;2022-12-05T07:08:32;29.90;;;17.07;;
23702;SDS011;12030;50.376;8.762;2022-12-05T07:10:58;29.70;;;17.97;;
23702;SDS011;12030;50.376;8.762;2022-12-05T07:13:24;29.27;;;16.83;;
23702;SDS011;12030;50.376;8.762;2022-12-05T07:15:50;27.47;;;16.90;;
23702;SDS011;12030;50.376;8.762;2022-12-05T07:18:15;26.37;;;16.53;;
23702;SDS011;12030;50.376;8.762;2022-12-05T07:20:42;32.23;;;17.50;;
23702;SDS011;12030;50.376;8.762;2022-12-05T07:23:08;29.67;;;17.37;;
23702;SDS011;12030;50.376;8.762;2022-12-05T07:25:38;32.87;;;18.03;;
23702;SDS011;12030;50.376;8.762;2022-12-05T07:28:04;33.93;;;17.90;;
23702;SDS011;12030;50.376;8.762;2022-12-05T07:30:30;31.87;;;16.63;;
23702;SDS011;12030;50.376;8.762;2022-12-05T07:32:56;30.80;;;17.80;;
23702;SDS011;12030;50.376;8.762;2022-12-05T07:35:21;31.00;;;18.33;;
23702;SDS011;12030;50.376;8.762;2022-12-05T07:37:47;28.60;;;17.40;;
23702;SDS011;12030;50.376;8.762;2022-12-05T07:40:13;32.43;;;18.87;;
23702;SDS011;12030;50.376;8.762;2022-12-05T07:42:38;30.23;;;17.47;;
23702;SDS011;12030;50.376;8.762;2022-12-05T07:45:04;32.07;;;19.23;;
23702;SDS011;12030;50.376;8.762;2022-12-05T07:47:30;35.63;;;18.93;;
23702;SDS011;12030;50.376;8.762;2022-12-05T07:49:56;36.50;;;18.97;;
23702;SDS011;12030;50.376;8.762;2022-12-05T07:52:21;33.67;;;18.87;;
23702;SDS011;12030;50.376;8.762;2022-12-05T07:54:47;33.23;;;18.37;;
23702;SDS011;12030;50.376;8.762;2022-12-05T07:57:12;35.27;;;19.20;;
23702;SDS011;12030;50.376;8.762;2022-12-05T07:59:38;37.43;;;19.67;;
23702;SDS011;12030;50.376;8.762;2022-12-05T08:02:03;34.47;;;18.87;;
23702;SDS011;12030;50.376;8.762;2022-12-05T08:04:29;37.10;;;19.00;;
23702;SDS011;12030;50.376;8.762;2022-12-05T08:06:55;34.27;;;19.67;;
23702;SDS011;12030;50.376;8.762;2022-12-05T08:09:20;34.40;;;20.37;;
23702;SDS011;12030;50.376;8.762;2022-12-05T08:11:45;36.67;;;19.20;;
23702;SDS011;12030;50.376;8.762;2022-12-05T08:14:11;37.83;;;20.07;;
23702;SDS011;12030;50.376;8.762;2022-12-05T08:16:37;33.43;;;19.80;;
23702;SDS011;12030;50.376;8.762;2022-12-05T08:19:03;44.13;;;21.60;;
23702;SDS011;12030;50.376;8.762;2022-12-05T08:21:30;39.87;;;21.00;;
23702;SDS011;12030;50.376;8.762;2022-12-05T08:23:56;46.27;;;21.90;;
23702;SDS011;12030;50.376;8.762;2022-12-05T08:26:24;38.93;;;21.00;;
23702;SDS011;12030;50.376;8.762;2022-12-05T08:28:52;39.80;;;20.73;;
23702;SDS011;12030;50.376;8.762;2022-12-05T08:31:20;40.43;;;21.50;;
23702;SDS011;12030;50.376;8.762;2022-12-05T08:33:48;41.57;;;21.53;;
23702;SDS011;12030;50.376;8.762;2022-12-05T08:36:15;44.70;;;20.73;;
23702;SDS011;12030;50.376;8.762;2022-12-05T08:38:42;41.23;;;21.27;;
23702;SDS011;12030;50.376;8.762;2022-12-05T08:41:09;48.77;;;22.00;;
23702;SDS011;12030;50.376;8.762;2022-12-05T08:43:36;35.37;;;19.70;;
23702;SDS011;12030;50.376;8.762;2022-12-05T08:46:02;43.77;;;21.87;;
23702;SDS011;12030;50.376;8.762;2022-12-05T08:48:29;40.43;;;21.10;;
23702;SDS011;12030;50.376;8.762;2022-12-05T08:50:56;37.77;;;19.87;;
23702;SDS011;12030;50.376;8.762;2022-12-05T08:53:23;35.63;;;19.50;;
23702;SDS011;12030;50.376;8.762;2022-12-05T08:55:49;32.90;;;18.67;;
23702;SDS011;12030;50.376;8.762;2022-12-05T08:58:14;30.27;;;17.83;;
23702;SDS011;12030;50.376;8.762;2022-12-05T09:00:40;32.60;;;17.33;;
23702;SDS011;12030;50.376;8.762;2022-12-05T09:03:06;26.30;;;15.23;;
23702;SDS011;12030;50.376;8.762;2022-12-05T09:05:34;28.17;;;16.80;;
23702;SDS011;12030;50.376;8.762;2022-12-05T09:08:00;24.20;;;15.30;;
23702;SDS011;12030;50.376;8.762;2022-12-05T09:10:26;25.37;;;15.13;;
23702;SDS011;12030;50.376;8.762;2022-12-05T09:12:51;23.43;;;15.17;;
23702;SDS011;12030;50.376;8.762;2022-12-05T09:15:17;26.27;;;15.97;;
23702;SDS011;12030;50.376;8.762;2022-12-05T09:17:43;24.10;;;14.80;;
23702;SDS011;12030;50.376;8.762;2022-12-05T09:20:08;23.17;;;15.03;;
23702;SDS011;12030;50.376;8.762;2022-12-05T09:22:37;26.17;;;16.30;;
23702;SDS011;12030;50.376;8.762;2022-12-05T09:25:02;27.60;;;16.03;;
23702;SDS011;12030;50.376;8.762;2022-12-05T09:27:28;24.03;;;16.47;;
23702;SDS011;12030;50.376;8.762;2022-12-05T09:29:54;22.03;;;14.63;;
23702;SDS011;12030;50.376;8.762;2022-12-05T09:32:19;22.87;;;16.40;;
23702;SDS011;12030;50.376;8.762;2022-12-05T09:34:45;23.13;;;15.37;;
23702;SDS011;12030;50.376;8.762;2022-12-05T09:37:10;24.10;;;15.57;;
23702;SDS011;12030;50.376;8.762;2022-12-05T09:39:36;24.17;;;16.23;;
23702;SDS011;12030;50.376;8.762;2022-12-05T09:49:54;25.70;;;14.53;;
23702;SDS011;12030;50.376;8.762;2022-12-05T09:52:27;19.53;;;13.40;;
23702;SDS011;12030;50.376;8.762;2022-12-05T09:54:55;21.20;;;14.23;;
23702;SDS011;12030;50.376;8.762;2022-12-05T09:57:32;21.03;;;13.50;;
23702;SDS011;12030;50.376;8.762;2022-12-05T10:00:02;19.23;;;13.03;;
23702;SDS011;12030;50.376;8.762;2022-12-05T10:02:40;19.20;;;12.60;;
23702;SDS011;12030;50.376;8.762;2022-12-05T10:05:28;21.97;;;13.40;;
23702;SDS011;12030;50.376;8.762;2022-12-05T10:10:59;24.33;;;13.80;;
23702;SDS011;12030;50.376;8.762;2022-12-05T10:13:33;20.50;;;14.20;;
23702;SDS011;12030;50.376;8.762;2022-12-05T10:16:25;20.20;;;14.20;;
23702;SDS011;12030;50.376;8.762;2022-12-05T10:19:40;22.23;;;15.17;;
23702;SDS011;12030;50.376;8.762;2022-12-05T10:22:18;23.33;;;14.67;;
23702;SDS011;12030;50.376;8.762;2022-12-05T10:24:51;21.93;;;14.53;;
23702;SDS011;12030;50.376;8.762;2022-12-05T10:27:41;18.80;;;15.33;;
23702;SDS011;12030;50.376;8.762;2022-12-05T10:30:13;23.67;;;14.73;;
23702;SDS011;12030;50.376;8.762;2022-12-05T10:35:20;23.97;;;16.17;;
23702;SDS011;12030;50.376;8.762;2022-12-05T10:37:48;23.07;;;16.33;;
23702;SDS011;12030;50.376;8.762;2022-12-05T10:40:16;23.97;;;16.40;;
23702;SDS011;12030;50.376;8.762;2022-12-05T10:42:42;22.40;;;16.47;;
23702;SDS011;12030;50.376;8.762;2022-12-05T10:45:13;24.20;;;16.17;;
23702;SDS011;12030;50.376;8.762;2022-12-05T10:47:47;23.40;;;16.00;;
23702;SDS011;12030;50.376;8.762;2022-12-05T10:50:19;22.43;;;16.50;;
23702;SDS011;12030;50.376;8.762;2022-12-05T10:52:56;22.33;;;17.50;;
23702;SDS011;12030;50.376;8.762;2022-12-05T10:55:24;23.33;;;16.97;;
23702;SDS011;12030;50.376;8.762;2022-12-05T10:58:08;24.00;;;18.30;;
23702;SDS011;12030;50.376;8.762;2022-12-05T11:00:40;27.17;;;17.50;;
23702;SDS011;12030;50.376;8.762;2022-12-05T11:03:23;27.93;;;17.57;;
23702;SDS011;12030;50.376;8.762;2022-12-05T11:05:50;26.17;;;17.67;;
23702;SDS011;12030;50.376;8.762;2022-12-05T11:08:22;24.40;;;17.33;;
23702;SDS011;12030;50.376;8.762;2022-12-05T11:10:49;23.83;;;17.93;;
23702;SDS011;12030;50.376;8.762;2022-12-05T11:13:26;24.13;;;17.80;;
23702;SDS011;12030;50.376;8.762;2022-12-05T11:15:52;22.63;;;17.80;;
23702;SDS011;12030;50.376;8.762;2022-12-05T11:20:49;23.90;;;17.17;;
23702;SDS011;12030;50.376;8.762;2022-12-05T11:23:25;20.43;;;17.10;;
23702;SDS011;12030;50.376;8.762;2022-12-05T11:25:53;22.20;;;17.37;;
23702;SDS011;12030;50.376;8.762;2022-12-05T11:28:28;24.17;;;18.00;;
23702;SDS011;12030;50.376;8.762;2022-12-05T11:31:01;21.40;;;16.57;;
23702;SDS011;12030;50.376;8.762;2022-12-05T11:33:29;23.30;;;17.40;;
23702;SDS011;12030;50.376;8.762;2022-12-05T11:36:00;24.77;;;19.20;;
23702;SDS011;12030;50.376;8.762;2022-12-05T11:38:29;22.10;;;17.50;;
23702;SDS011;12030;50.376;8.762;2022-12-05T11:41:00;24.47;;;17.83;;
23702;SDS011;12030;50.376;8.762;2022-12-05T11:50:06;23.50;;;17.77;;
23702;SDS011;12030;50.376;8.762;2022-12-05T11:56:59;24.83;;;18.03;;
23702;SDS011;12030;50.376;8.762;2022-12-05T12:11:12;23.53;;;17.60;;
23702;SDS011;12030;50.376;8.762;2022-12-05T12:14:11;22.13;;;16.73;;
23702;SDS011;12030;50.376;8.762;2022-12-05T12:31:38;18.53;;;14.77;;
23702;SDS011;12030;50.376;8.762;2022-12-05T12:37:12;18.83;;;14.63;;
23702;SDS011;12030;50.376;8.762;2022-12-05T12:39:50;16.73;;;14.37;;
23702;SDS011;12030;50.376;8.762;2022-12-05T12:42:23;20.13;;;14.60;;
23702;SDS011;12030;50.376;8.762;2022-12-05T12:45:05;18.10;;;14.60;;
23702;SDS011;12030;50.376;8.762;2022-12-05T12:47:41;19.33;;;15.00;;
23702;SDS011;12030;50.376;8.762;2022-12-05T12:50:30;20.03;;;14.67;;
23702;SDS011;12030;50.376;8.762;2022-12-05T13:01:32;20.27;;;14.63;;
23702;SDS011;12030;50.376;8.762;2022-12-05T13:04:14;19.57;;;15.00;;
23702;SDS011;12030;50.376;8.762;2022-12-05T13:12:36;20.00;;;14.87;;
23702;SDS011;12030;50.376;8.762;2022-12-05T13:15:10;20.00;;;15.20;;
23702;SDS011;12030;50.376;8.762;2022-12-05T13:17:40;17.67;;;14.37;;
23702;SDS011;12030;50.376;8.762;2022-12-05T13:20:13;19.80;;;13.93;;
23702;SDS011;12030;50.376;8.762;2022-12-05T13:22:46;19.10;;;15.50;;
23702;SDS011;12030;50.376;8.762;2022-12-05T13:25:14;18.90;;;15.50;;
23702;SDS011;12030;50.376;8.762;2022-12-05T13:27:54;18.57;;;14.50;;
23702;SDS011;12030;50.376;8.762;2022-12-05T13:30:28;19.00;;;15.33;;
23702;SDS011;12030;50.376;8.762;2022-12-05T13:33:06;19.97;;;14.43;;
23702;SDS011;12030;50.376;8.762;2022-12-05T13:35:34;20.17;;;14.67;;
23702;SDS011;12030;50.376;8.762;2022-12-05T13:38:26;21.50;;;15.53;;
23702;SDS011;12030;50.376;8.762;2022-12-05T13:41:16;18.23;;;14.50;;
23702;SDS011;12030;50.376;8.762;2022-12-05T13:44:01;18.53;;;14.27;;
23702;SDS011;12030;50.376;8.762;2022-12-05T13:46:36;19.90;;;14.70;;
23702;SDS011;12030;50.376;8.762;2022-12-05T13:49:05;14.37;;;11.50;;
23702;SDS011;12030;50.376;8.762;2022-12-05T13:51:41;19.30;;;13.97;;
23702;SDS011;12030;50.376;8.762;2022-12-05T13:54:14;17.87;;;13.83;;
23702;SDS011;12030;50.376;8.762;2022-12-05T13:56:46;20.30;;;14.50;;
23702;SDS011;12030;50.376;8.762;2022-12-05T14:07:46;17.57;;;13.03;;
23702;SDS011;12030;50.376;8.762;2022-12-05T14:10:23;16.03;;;12.93;;
23702;SDS011;12030;50.376;8.762;2022-12-05T14:18:46;16.23;;;11.47;;
23702;SDS011;12030;50.376;8.762;2022-12-05T14:29:37;13.97;;;11.27;;
23702;SDS011;12030;50.376;8.762;2022-12-05T14:32:30;15.40;;;11.90;;
23702;SDS011;12030;50.376;8.762;2022-12-05T14:37:25;16.03;;;11.93;;
23702;SDS011;12030;50.376;8.762;2022-12-05T14:40:03;16.60;;;11.63;;
23702;SDS011;12030;50.376;8.762;2022-12-05T14:43:03;15.00;;;11.30;;
23702;SDS011;12030;50.376;8.762;2022-12-05T14:45:36;12.57;;;10.53;;
23702;SDS011;12030;50.376;8.762;2022-12-05T14:55:39;15.53;;;12.13;;
23702;SDS011;12030;50.376;8.762;2022-12-05T14:58:18;17.93;;;12.63;;
23702;SDS011;12030;50.376;8.762;2022-12-05T15:00:53;14.63;;;12.67;;
23702;SDS011;12030;50.376;8.762;2022-12-05T15:03:22;18.03;;;13.23;;
23702;SDS011;12030;50.376;8.762;2022-12-05T15:05:53;16.60;;;12.53;;
23702;SDS011;12030;50.376;8.762;2022-12-05T15:08:21;17.97;;;13.00;;
23702;SDS011;12030;50.376;8.762;2022-12-05T15:10:47;18.07;;;13.37;;
23702;SDS011;12030;50.376;8.762;2022-12-05T15:13:17;16.60;;;13.63;;
23702;SDS011;12030;50.376;8.762;2022-12-05T15:15:51;20.30;;;14.27;;
23702;SDS011;12030;50.376;8.762;2022-12-05T15:18:38;17.20;;;13.20;;
23702;SDS011;12030;50.376;8.762;2022-12-05T15:21:28;17.23;;;12.73;;
23702;SDS011;12030;50.376;8.762;2022-12-05T15:23:59;16.43;;;12.23;;
23702;SDS011;12030;50.376;8.762;2022-12-05T15:26:46;17.57;;;13.23;;
23702;SDS011;12030;50.376;8.762;2022-12-05T15:31:50;14.20;;;12.03;;
23702;SDS011;12030;50.376;8.762;2022-12-05T15:34:17;15.03;;;12.07;;
23702;SDS011;12030;50.376;8.762;2022-12-05T15:36:48;16.97;;;12.63;;
23702;SDS011;12030;50.376;8.762;2022-12-05T15:42:22;16.47;;;12.60;;
23702;SDS011;12030;50.376;8.762;2022-12-05T15:44:49;16.93;;;12.80;;
23702;SDS011;12030;50.376;8.762;2022-12-05T15:47:18;16.47;;;12.47;;
23702;SDS011;12030;50.376;8.762;2022-12-05T15:49:47;18.80;;;13.50;;
23702;SDS011;12030;50.376;8.762;2022-12-05T15:52:32;16.30;;;12.73;;
23702;SDS011;12030;50.376;8.762;2022-12-05T15:55:04;16.33;;;12.13;;
23702;SDS011;12030;50.376;8.762;2022-12-05T15:57:36;15.97;;;12.97;;
23702;SDS011;12030;50.376;8.762;2022-12-05T16:00:13;17.27;;;12.13;;
23702;SDS011;12030;50.376;8.762;2022-12-05T16:05:17;15.60;;;12.50;;
23702;SDS011;12030;50.376;8.762;2022-12-05T16:07:46;15.43;;;12.17;;
23702;SDS011;12030;50.376;8.762;2022-12-05T16:10:14;15.00;;;12.10;;
23702;SDS011;12030;50.376;8.762;2022-12-05T16:12:40;14.83;;;11.73;;
23702;SDS011;12030;50.376;8.762;2022-12-05T16:15:09;14.17;;;11.50;;
23702;SDS011;12030;50.376;8.762;2022-12-05T16:17:43;16.43;;;12.07;;
23702;SDS011;12030;50.376;8.762;2022-12-05T16:20:12;15.20;;;11.87;;
23702;SDS011;12030;50.376;8.762;2022-12-05T16:22:47;12.63;;;10.07;;
23702;SDS011;12030;50.376;8.762;2022-12-05T16:25:15;19.50;;;11.67;;
23702;SDS011;12030;50.376;8.762;2022-12-05T16:27:55;14.50;;;11.33;;
23702;SDS011;12030;50.376;8.762;2022-12-05T16:30:21;15.20;;;11.43;;
23702;SDS011;12030;50.376;8.762;2022-12-05T16:32:48;17.53;;;11.67;;
23702;SDS011;12030;50.376;8.762;2022-12-05T16:43:39;17.20;;;13.63;;
23702;SDS011;12030;50.376;8.762;2022-12-05T16:48:37;19.97;;;13.47;;
23702;SDS011;12030;50.376;8.762;2022-12-05T16:51:24;18.47;;;13.00;;
23702;SDS011;12030;50.376;8.762;2022-12-05T16:53:50;21.23;;;14.73;;
23702;SDS011;12030;50.376;8.762;2022-12-05T16:58:54;20.77;;;13.67;;
23702;SDS011;12030;50.376;8.762;2022-12-05T17:01:24;16.80;;;13.10;;
23702;SDS011;12030;50.376;8.762;2022-12-05T17:03:54;15.97;;;12.50;;
23702;SDS011;12030;50.376;8.762;2022-12-05T17:06:21;16.13;;;11.63;;
23702;SDS011;12030;50.376;8.762;2022-12-05T17:08:48;16.83;;;12.97;;
23702;SDS011;12030;50.376;8.762;2022-12-05T17:11:22;17.60;;;12.47;;
23702;SDS011;12030;50.376;8.762;2022-12-05T17:13:51;16.73;;;12.40;;
23702;SDS011;12030;50.376;8.762;2022-12-05T17:16:18;15.77;;;12.00;;
23702;SDS011;12030;50.376;8.762;2022-12-05T17:18:44;15.90;;;11.43;;
23702;SDS011;12030;50.376;8.762;2022-12-05T17:21:17;15.23;;;12.23;;
23702;SDS011;12030;50.376;8.762;2022-12-05T17:23:45;14.63;;;11.67;;